sensor_id;sensor_type;location;lat;lon;timestamp;temperature;humidity
44817;DHT22;30529;53.570;9.964;2022-10-31T00:01:01;13.80;99.90
44817;DHT22;30529;53.570;9.964;2022-10-31T00:03:27;13.80;99.90
44817;DHT22;30529;53.570;9.964;2022-10-31T00:05:53;13.80;99.90
44817;DHT22;30529;53.570;9.964;2022-10-31T00:08:19;13.80;99.90
44817;DHT22;30529;53.570;9.964;2022-10-31T00:10:46;13.80;99.90
44817;DHT22;30529;53.570;9.964;2022-10-31T00:13:13;13.80;99.90
44817;DHT22;30529;53.570;9.964;2022-10-31T00:15:40;13.80;99.90
44817;DHT22;30529;53.570;9.964;2022-10-31T00:18:08;13.80;99.90
44817;DHT22;30529;53.570;9.964;2022-10-31T00:20:35;13.80;99.90
44817;DHT22;30529;53.570;9.964;2022-10-31T00:23:03;13.80;99.90
44817;DHT22;30529;53.570;9.964;2022-10-31T00:25:34;13.80;99.90
44817;DHT22;30529;53.570;9.964;2022-10-31T00:28:02;13.80;99.90
44817;DHT22;30529;53.570;9.964;2022-10-31T00:30:28;13.80;99.90
44817;DHT22;30529;53.570;9.964;2022-10-31T00:32:54;13.80;99.90
44817;DHT22;30529;53.570;9.964;2022-10-31T00:35:20;13.80;99.90
44817;DHT22;30529;53.570;9.964;2022-10-31T00:37:47;13.80;99.90
44817;DHT22;30529;53.570;9.964;2022-10-31T00:40:15;13.80;99.90
44817;DHT22;30529;53.570;9.964;2022-10-31T00:42:42;13.80;99.90
44817;DHT22;30529;53.570;9.964;2022-10-31T00:45:11;13.70;99.90
44817;DHT22;30529;53.570;9.964;2022-10-31T00:47:37;13.70;99.90
44817;DHT22;30529;53.570;9.964;2022-10-31T00:50:07;13.80;99.90
44817;DHT22;30529;53.570;9.964;2022-10-31T00:52:33;13.70;99.90
44817;DHT22;30529;53.570;9.964;2022-10-31T00:55:00;13.70;99.90
44817;DHT22;30529;53.570;9.964;2022-10-31T00:57:26;13.70;99.90
44817;DHT22;30529;53.570;9.964;2022-10-31T00:59:52;13.70;99.90
44817;DHT22;30529;53.570;9.964;2022-10-31T01:02:18;13.60;99.90
44817;DHT22;30529;53.570;9.964;2022-10-31T01:04:44;13.60;99.90
44817;DHT22;30529;53.570;9.964;2022-10-31T01:07:10;13.60;99.90
44817;DHT22;30529;53.570;9.964;2022-10-31T01:09:39;13.60;99.90
44817;DHT22;30529;53.570;9.964;2022-10-31T01:12:05;13.60;99.90
44817;DHT22;30529;53.570;9.964;2022-10-31T01:14:31;13.50;99.90
44817;DHT22;30529;53.570;9.964;2022-10-31T01:16:57;13.50;99.90
44817;DHT22;30529;53.570;9.964;2022-10-31T01:19:23;13.50;99.90
44817;DHT22;30529;53.570;9.964;2022-10-31T01:21:50;13.50;99.90
44817;DHT22;30529;53.570;9.964;2022-10-31T01:24:16;13.50;99.90
44817;DHT22;30529;53.570;9.964;2022-10-31T01:26:42;13.50;99.90
44817;DHT22;30529;53.570;9.964;2022-10-31T01:29:08;13.50;99.90
44817;DHT22;30529;53.570;9.964;2022-10-31T01:31:37;13.60;99.90
44817;DHT22;30529;53.570;9.964;2022-10-31T01:34:05;13.70;99.90
44817;DHT22;30529;53.570;9.964;2022-10-31T01:36:36;13.80;99.90
44817;DHT22;30529;53.570;9.964;2022-10-31T01:39:05;13.90;99.90
44817;DHT22;30529;53.570;9.964;2022-10-31T01:41:35;13.80;99.90
44817;DHT22;30529;53.570;9.964;2022-10-31T01:51:45;13.60;99.90
44817;DHT22;30529;53.570;9.964;2022-10-31T01:54:15;13.60;99.90
44817;DHT22;30529;53.570;9.964;2022-10-31T01:56:47;13.60;99.90
44817;DHT22;30529;53.570;9.964;2022-10-31T01:59:17;13.50;99.90
44817;DHT22;30529;53.570;9.964;2022-10-31T02:01:43;13.60;99.90
44817;DHT22;30529;53.570;9.964;2022-10-31T02:04:09;13.60;99.90
44817;DHT22;30529;53.570;9.964;2022-10-31T02:06:40;13.60;99.90
44817;DHT22;30529;53.570;9.964;2022-10-31T02:09:09;13.60;99.90
44817;DHT22;30529;53.570;9.964;2022-10-31T02:11:36;13.60;99.90
44817;DHT22;30529;53.570;9.964;2022-10-31T02:14:03;13.60;99.90
44817;DHT22;30529;53.570;9.964;2022-10-31T02:16:29;13.70;99.90
44817;DHT22;30529;53.570;9.964;2022-10-31T02:18:56;13.70;99.90
44817;DHT22;30529;53.570;9.964;2022-10-31T02:26:52;13.60;99.90
44817;DHT22;30529;53.570;9.964;2022-10-31T02:35:05;13.60;99.90
44817;DHT22;30529;53.570;9.964;2022-10-31T02:43:27;13.50;99.90
44817;DHT22;30529;53.570;9.964;2022-10-31T02:45:57;13.40;99.90
44817;DHT22;30529;53.570;9.964;2022-10-31T02:48:28;13.40;99.90
44817;DHT22;30529;53.570;9.964;2022-10-31T02:51:01;13.40;99.90
44817;DHT22;30529;53.570;9.964;2022-10-31T02:53:34;13.40;99.90
44817;DHT22;30529;53.570;9.964;2022-10-31T02:56:05;13.40;99.90
44817;DHT22;30529;53.570;9.964;2022-10-31T02:58:37;13.30;99.90
44817;DHT22;30529;53.570;9.964;2022-10-31T03:12:15;13.30;99.90
44817;DHT22;30529;53.570;9.964;2022-10-31T03:17:36;13.20;99.90
44817;DHT22;30529;53.570;9.964;2022-10-31T03:20:04;13.20;99.90
44817;DHT22;30529;53.570;9.964;2022-10-31T03:22:33;13.20;99.90
44817;DHT22;30529;53.570;9.964;2022-10-31T03:25:02;13.10;99.90
44817;DHT22;30529;53.570;9.964;2022-10-31T03:27:33;13.10;99.90
44817;DHT22;30529;53.570;9.964;2022-10-31T03:30:03;13.10;99.90
44817;DHT22;30529;53.570;9.964;2022-10-31T03:34:58;13.00;99.90
44817;DHT22;30529;53.570;9.964;2022-10-31T03:37:27;13.00;99.90
44817;DHT22;30529;53.570;9.964;2022-10-31T03:39:57;13.00;99.90
44817;DHT22;30529;53.570;9.964;2022-10-31T03:42:25;13.00;99.90
44817;DHT22;30529;53.570;9.964;2022-10-31T03:45:11;13.00;99.90
44817;DHT22;30529;53.570;9.964;2022-10-31T03:47:39;13.00;99.90
44817;DHT22;30529;53.570;9.964;2022-10-31T03:50:07;13.00;99.90
44817;DHT22;30529;53.570;9.964;2022-10-31T03:52:36;13.00;99.90
44817;DHT22;30529;53.570;9.964;2022-10-31T03:55:17;13.00;99.90
44817;DHT22;30529;53.570;9.964;2022-10-31T03:57:59;13.00;99.90
44817;DHT22;30529;53.570;9.964;2022-10-31T04:00:26;13.00;99.90
44817;DHT22;30529;53.570;9.964;2022-10-31T04:03:03;13.00;99.90
44817;DHT22;30529;53.570;9.964;2022-10-31T04:05:32;13.00;99.90
44817;DHT22;30529;53.570;9.964;2022-10-31T04:08:01;13.00;99.90
44817;DHT22;30529;53.570;9.964;2022-10-31T04:10:29;13.00;99.90
44817;DHT22;30529;53.570;9.964;2022-10-31T04:13:03;13.00;99.90
44817;DHT22;30529;53.570;9.964;2022-10-31T04:15:31;13.00;99.90
44817;DHT22;30529;53.570;9.964;2022-10-31T04:17:59;13.00;99.90
44817;DHT22;30529;53.570;9.964;2022-10-31T04:20:34;13.00;99.90
44817;DHT22;30529;53.570;9.964;2022-10-31T04:23:00;13.00;99.90
44817;DHT22;30529;53.570;9.964;2022-10-31T04:25:27;13.00;99.90
44817;DHT22;30529;53.570;9.964;2022-10-31T04:27:54;13.00;99.90
44817;DHT22;30529;53.570;9.964;2022-10-31T04:30:20;13.00;99.90
44817;DHT22;30529;53.570;9.964;2022-10-31T04:32:47;13.00;99.90
44817;DHT22;30529;53.570;9.964;2022-10-31T04:35:13;13.10;99.90
44817;DHT22;30529;53.570;9.964;2022-10-31T04:37:39;13.10;99.90
44817;DHT22;30529;53.570;9.964;2022-10-31T04:40:06;13.10;99.90
44817;DHT22;30529;53.570;9.964;2022-10-31T04:42:32;13.10;99.90
44817;DHT22;30529;53.570;9.964;2022-10-31T04:44:58;13.10;99.90
44817;DHT22;30529;53.570;9.964;2022-10-31T04:47:24;13.10;99.90
44817;DHT22;30529;53.570;9.964;2022-10-31T04:49:50;13.20;99.90
44817;DHT22;30529;53.570;9.964;2022-10-31T04:52:16;13.20;99.90
44817;DHT22;30529;53.570;9.964;2022-10-31T04:54:43;13.10;99.90
44817;DHT22;30529;53.570;9.964;2022-10-31T04:57:09;13.10;99.90
44817;DHT22;30529;53.570;9.964;2022-10-31T04:59:35;13.10;99.90
44817;DHT22;30529;53.570;9.964;2022-10-31T05:02:01;13.10;99.90
44817;DHT22;30529;53.570;9.964;2022-10-31T05:04:27;13.10;99.90
44817;DHT22;30529;53.570;9.964;2022-10-31T05:06:53;13.10;99.90
44817;DHT22;30529;53.570;9.964;2022-10-31T05:09:19;13.10;99.90
44817;DHT22;30529;53.570;9.964;2022-10-31T05:11:45;13.10;99.90
44817;DHT22;30529;53.570;9.964;2022-10-31T05:14:12;13.10;99.90
44817;DHT22;30529;53.570;9.964;2022-10-31T05:16:38;13.10;99.90
44817;DHT22;30529;53.570;9.964;2022-10-31T05:19:04;13.10;99.90
44817;DHT22;30529;53.570;9.964;2022-10-31T05:21:30;13.20;99.90
44817;DHT22;30529;53.570;9.964;2022-10-31T05:23:56;13.20;99.90
44817;DHT22;30529;53.570;9.964;2022-10-31T05:26:23;13.20;99.90
44817;DHT22;30529;53.570;9.964;2022-10-31T05:28:49;13.30;99.90
44817;DHT22;30529;53.570;9.964;2022-10-31T05:31:15;13.20;99.90
44817;DHT22;30529;53.570;9.964;2022-10-31T05:33:41;13.20;99.90
44817;DHT22;30529;53.570;9.964;2022-10-31T05:36:08;13.20;99.90
44817;DHT22;30529;53.570;9.964;2022-10-31T05:38:34;13.30;99.90
44817;DHT22;30529;53.570;9.964;2022-10-31T05:41:00;13.30;99.90
44817;DHT22;30529;53.570;9.964;2022-10-31T05:43:28;13.30;99.90
44817;DHT22;30529;53.570;9.964;2022-10-31T05:45:55;13.40;99.90
44817;DHT22;30529;53.570;9.964;2022-10-31T05:48:22;13.40;99.90
44817;DHT22;30529;53.570;9.964;2022-10-31T05:50:49;13.50;99.90
44817;DHT22;30529;53.570;9.964;2022-10-31T05:53:15;13.50;99.90
44817;DHT22;30529;53.570;9.964;2022-10-31T05:55:42;13.50;99.90
44817;DHT22;30529;53.570;9.964;2022-10-31T05:58:09;13.60;99.90
44817;DHT22;30529;53.570;9.964;2022-10-31T06:00:36;13.60;99.90
44817;DHT22;30529;53.570;9.964;2022-10-31T06:03:05;13.70;99.90
44817;DHT22;30529;53.570;9.964;2022-10-31T06:05:32;13.70;99.90
44817;DHT22;30529;53.570;9.964;2022-10-31T06:07:58;13.70;99.90
44817;DHT22;30529;53.570;9.964;2022-10-31T06:10:26;13.80;99.90
44817;DHT22;30529;53.570;9.964;2022-10-31T06:12:52;13.80;99.90
44817;DHT22;30529;53.570;9.964;2022-10-31T06:15:18;13.80;99.90
44817;DHT22;30529;53.570;9.964;2022-10-31T06:17:45;13.80;99.90
44817;DHT22;30529;53.570;9.964;2022-10-31T06:20:15;13.80;99.90
44817;DHT22;30529;53.570;9.964;2022-10-31T06:22:41;13.90;99.90
44817;DHT22;30529;53.570;9.964;2022-10-31T06:25:07;13.90;99.90
44817;DHT22;30529;53.570;9.964;2022-10-31T06:27:33;13.90;99.90
44817;DHT22;30529;53.570;9.964;2022-10-31T06:29:59;13.90;99.90
44817;DHT22;30529;53.570;9.964;2022-10-31T06:32:25;13.80;99.90
44817;DHT22;30529;53.570;9.964;2022-10-31T06:34:56;13.80;99.90
44817;DHT22;30529;53.570;9.964;2022-10-31T06:37:22;13.90;99.90
44817;DHT22;30529;53.570;9.964;2022-10-31T06:39:49;13.80;99.90
44817;DHT22;30529;53.570;9.964;2022-10-31T06:42:15;13.90;99.90
44817;DHT22;30529;53.570;9.964;2022-10-31T06:44:41;13.80;99.90
44817;DHT22;30529;53.570;9.964;2022-10-31T06:47:08;13.80;99.90
44817;DHT22;30529;53.570;9.964;2022-10-31T06:49:34;13.80;99.90
44817;DHT22;30529;53.570;9.964;2022-10-31T06:52:00;13.70;99.90
44817;DHT22;30529;53.570;9.964;2022-10-31T06:54:26;13.70;99.90
44817;DHT22;30529;53.570;9.964;2022-10-31T06:56:52;13.70;99.90
44817;DHT22;30529;53.570;9.964;2022-10-31T06:59:18;13.60;99.90
44817;DHT22;30529;53.570;9.964;2022-10-31T07:01:45;13.60;99.90
44817;DHT22;30529;53.570;9.964;2022-10-31T07:04:11;13.60;99.90
44817;DHT22;30529;53.570;9.964;2022-10-31T07:06:38;13.60;99.90
44817;DHT22;30529;53.570;9.964;2022-10-31T07:09:04;13.60;99.90
44817;DHT22;30529;53.570;9.964;2022-10-31T07:11:30;13.70;99.90
44817;DHT22;30529;53.570;9.964;2022-10-31T07:13:56;13.70;99.90
44817;DHT22;30529;53.570;9.964;2022-10-31T07:16:22;13.70;99.90
44817;DHT22;30529;53.570;9.964;2022-10-31T07:18:49;13.70;99.90
44817;DHT22;30529;53.570;9.964;2022-10-31T07:21:16;13.70;99.90
44817;DHT22;30529;53.570;9.964;2022-10-31T07:23:42;13.80;99.90
44817;DHT22;30529;53.570;9.964;2022-10-31T07:26:09;13.80;99.90
44817;DHT22;30529;53.570;9.964;2022-10-31T07:28:35;13.80;99.90
44817;DHT22;30529;53.570;9.964;2022-10-31T07:31:02;13.80;99.90
44817;DHT22;30529;53.570;9.964;2022-10-31T07:33:28;13.80;99.90
44817;DHT22;30529;53.570;9.964;2022-10-31T07:35:54;13.80;99.90
44817;DHT22;30529;53.570;9.964;2022-10-31T07:38:20;13.80;99.90
44817;DHT22;30529;53.570;9.964;2022-10-31T07:40:50;13.70;99.90
44817;DHT22;30529;53.570;9.964;2022-10-31T07:43:17;13.70;99.90
44817;DHT22;30529;53.570;9.964;2022-10-31T07:45:43;13.70;99.90
44817;DHT22;30529;53.570;9.964;2022-10-31T07:48:10;13.70;99.90
44817;DHT22;30529;53.570;9.964;2022-10-31T07:50:36;13.70;99.90
44817;DHT22;30529;53.570;9.964;2022-10-31T07:53:08;13.70;99.90
44817;DHT22;30529;53.570;9.964;2022-10-31T07:55:34;13.70;99.90
44817;DHT22;30529;53.570;9.964;2022-10-31T07:58:03;13.70;99.90
44817;DHT22;30529;53.570;9.964;2022-10-31T08:00:30;13.70;99.90
44817;DHT22;30529;53.570;9.964;2022-10-31T08:03:08;13.80;99.90
44817;DHT22;30529;53.570;9.964;2022-10-31T08:05:35;13.80;99.90
44817;DHT22;30529;53.570;9.964;2022-10-31T08:08:02;13.90;99.90
44817;DHT22;30529;53.570;9.964;2022-10-31T08:10:29;14.00;99.90
44817;DHT22;30529;53.570;9.964;2022-10-31T08:13:00;14.00;99.90
44817;DHT22;30529;53.570;9.964;2022-10-31T08:15:27;14.20;99.90
44817;DHT22;30529;53.570;9.964;2022-10-31T08:17:53;14.30;99.90
44817;DHT22;30529;53.570;9.964;2022-10-31T08:20:20;14.40;99.90
44817;DHT22;30529;53.570;9.964;2022-10-31T08:23:01;14.50;99.90
44817;DHT22;30529;53.570;9.964;2022-10-31T08:25:28;14.40;99.90
44817;DHT22;30529;53.570;9.964;2022-10-31T08:27:56;14.40;99.90
44817;DHT22;30529;53.570;9.964;2022-10-31T08:30:25;14.40;99.90
44817;DHT22;30529;53.570;9.964;2022-10-31T08:35:28;14.60;99.90
44817;DHT22;30529;53.570;9.964;2022-10-31T08:37:55;14.70;99.90
44817;DHT22;30529;53.570;9.964;2022-10-31T08:40:22;14.90;99.90
44817;DHT22;30529;53.570;9.964;2022-10-31T08:42:56;15.00;99.90
44817;DHT22;30529;53.570;9.964;2022-10-31T08:45:23;15.10;99.90
44817;DHT22;30529;53.570;9.964;2022-10-31T08:47:49;15.00;99.90
44817;DHT22;30529;53.570;9.964;2022-10-31T08:50:15;14.90;99.90
44817;DHT22;30529;53.570;9.964;2022-10-31T08:52:42;14.90;99.90
44817;DHT22;30529;53.570;9.964;2022-10-31T08:55:08;14.80;99.90
44817;DHT22;30529;53.570;9.964;2022-10-31T08:57:34;14.70;99.90
44817;DHT22;30529;53.570;9.964;2022-10-31T09:00:00;14.60;99.90
44817;DHT22;30529;53.570;9.964;2022-10-31T09:02:26;14.60;99.90
44817;DHT22;30529;53.570;9.964;2022-10-31T09:04:52;14.70;99.90
44817;DHT22;30529;53.570;9.964;2022-10-31T09:07:19;14.80;99.90
44817;DHT22;30529;53.570;9.964;2022-10-31T09:09:45;14.90;99.90
44817;DHT22;30529;53.570;9.964;2022-10-31T09:12:11;14.90;99.90
44817;DHT22;30529;53.570;9.964;2022-10-31T09:14:37;15.00;99.90
44817;DHT22;30529;53.570;9.964;2022-10-31T09:17:03;15.10;99.90
44817;DHT22;30529;53.570;9.964;2022-10-31T09:19:30;15.10;99.90
44817;DHT22;30529;53.570;9.964;2022-10-31T09:21:56;15.10;99.90
44817;DHT22;30529;53.570;9.964;2022-10-31T09:24:22;15.10;99.90
44817;DHT22;30529;53.570;9.964;2022-10-31T09:26:49;15.10;99.90
44817;DHT22;30529;53.570;9.964;2022-10-31T09:29:15;15.20;99.90
44817;DHT22;30529;53.570;9.964;2022-10-31T09:31:41;15.20;99.90
44817;DHT22;30529;53.570;9.964;2022-10-31T09:34:07;15.30;99.90
44817;DHT22;30529;53.570;9.964;2022-10-31T09:36:37;15.30;99.90
44817;DHT22;30529;53.570;9.964;2022-10-31T09:39:03;15.30;99.90
44817;DHT22;30529;53.570;9.964;2022-10-31T09:42:17;15.30;99.90
44817;DHT22;30529;53.570;9.964;2022-10-31T09:53:13;15.50;99.90
44817;DHT22;30529;53.570;9.964;2022-10-31T09:55:48;15.40;99.90
44817;DHT22;30529;53.570;9.964;2022-10-31T09:58:18;15.40;99.90
44817;DHT22;30529;53.570;9.964;2022-10-31T10:00:47;15.40;99.90
44817;DHT22;30529;53.570;9.964;2022-10-31T10:08:34;15.40;99.90
44817;DHT22;30529;53.570;9.964;2022-10-31T10:30:20;15.50;99.90
44817;DHT22;30529;53.570;9.964;2022-10-31T10:32:57;15.50;99.90
44817;DHT22;30529;53.570;9.964;2022-10-31T10:35:28;15.60;99.90
44817;DHT22;30529;53.570;9.964;2022-10-31T10:38:03;15.60;99.90
44817;DHT22;30529;53.570;9.964;2022-10-31T10:40:33;15.60;99.90
44817;DHT22;30529;53.570;9.964;2022-10-31T10:43:33;15.40;99.90
44817;DHT22;30529;53.570;9.964;2022-10-31T10:52:02;15.30;99.90
44817;DHT22;30529;53.570;9.964;2022-10-31T10:55:13;15.30;99.90
44817;DHT22;30529;53.570;9.964;2022-10-31T10:58:03;15.30;99.90
44817;DHT22;30529;53.570;9.964;2022-10-31T11:00:34;15.30;99.90
44817;DHT22;30529;53.570;9.964;2022-10-31T11:03:01;15.50;99.90
44817;DHT22;30529;53.570;9.964;2022-10-31T11:05:42;15.60;99.90
44817;DHT22;30529;53.570;9.964;2022-10-31T11:13:43;15.80;99.90
44817;DHT22;30529;53.570;9.964;2022-10-31T11:16:13;15.90;99.90
44817;DHT22;30529;53.570;9.964;2022-10-31T11:18:45;15.90;99.90
44817;DHT22;30529;53.570;9.964;2022-10-31T11:21:24;15.80;99.90
44817;DHT22;30529;53.570;9.964;2022-10-31T11:26:33;16.00;99.90
44817;DHT22;30529;53.570;9.964;2022-10-31T11:29:01;16.00;99.90
44817;DHT22;30529;53.570;9.964;2022-10-31T11:31:29;16.10;99.90
44817;DHT22;30529;53.570;9.964;2022-10-31T11:34:04;16.10;99.90
44817;DHT22;30529;53.570;9.964;2022-10-31T11:36:36;16.20;99.90
44817;DHT22;30529;53.570;9.964;2022-10-31T11:39:05;16.20;99.90
44817;DHT22;30529;53.570;9.964;2022-10-31T11:41:40;16.20;99.90
44817;DHT22;30529;53.570;9.964;2022-10-31T11:44:12;16.20;99.90
44817;DHT22;30529;53.570;9.964;2022-10-31T11:46:48;16.30;99.90
44817;DHT22;30529;53.570;9.964;2022-10-31T11:51:49;16.30;99.90
44817;DHT22;30529;53.570;9.964;2022-10-31T11:54:21;16.10;99.90
44817;DHT22;30529;53.570;9.964;2022-10-31T11:56:48;16.10;99.90
44817;DHT22;30529;53.570;9.964;2022-10-31T11:59:29;16.10;99.90
44817;DHT22;30529;53.570;9.964;2022-10-31T12:01:59;16.00;99.90
44817;DHT22;30529;53.570;9.964;2022-10-31T12:04:38;16.00;99.90
44817;DHT22;30529;53.570;9.964;2022-10-31T12:07:06;16.00;99.90
44817;DHT22;30529;53.570;9.964;2022-10-31T12:09:36;16.00;99.90
44817;DHT22;30529;53.570;9.964;2022-10-31T12:12:26;15.90;99.90
44817;DHT22;30529;53.570;9.964;2022-10-31T12:17:38;15.90;99.90
44817;DHT22;30529;53.570;9.964;2022-10-31T12:20:25;15.80;99.90
44817;DHT22;30529;53.570;9.964;2022-10-31T12:23:01;15.90;99.90
44817;DHT22;30529;53.570;9.964;2022-10-31T12:25:50;15.90;99.90
44817;DHT22;30529;53.570;9.964;2022-10-31T12:31:44;15.60;99.90
44817;DHT22;30529;53.570;9.964;2022-10-31T12:39:59;15.80;99.90
44817;DHT22;30529;53.570;9.964;2022-10-31T12:48:14;15.80;99.90
44817;DHT22;30529;53.570;9.964;2022-10-31T12:58:57;15.90;99.90
44817;DHT22;30529;53.570;9.964;2022-10-31T13:01:55;16.00;99.90
44817;DHT22;30529;53.570;9.964;2022-10-31T13:04:36;16.00;99.90
44817;DHT22;30529;53.570;9.964;2022-10-31T13:07:10;16.10;99.90
44817;DHT22;30529;53.570;9.964;2022-10-31T13:09:47;16.10;99.90
44817;DHT22;30529;53.570;9.964;2022-10-31T13:12:19;15.90;99.90
44817;DHT22;30529;53.570;9.964;2022-10-31T13:14:52;15.60;99.90
44817;DHT22;30529;53.570;9.964;2022-10-31T13:17:45;15.40;99.90
44817;DHT22;30529;53.570;9.964;2022-10-31T13:20:33;15.30;99.90
44817;DHT22;30529;53.570;9.964;2022-10-31T13:25:55;15.00;99.90
44817;DHT22;30529;53.570;9.964;2022-10-31T13:28:43;14.90;99.90
44817;DHT22;30529;53.570;9.964;2022-10-31T13:31:13;14.90;99.90
44817;DHT22;30529;53.570;9.964;2022-10-31T13:33:44;14.80;99.90
44817;DHT22;30529;53.570;9.964;2022-10-31T13:46:42;15.10;99.90
44817;DHT22;30529;53.570;9.964;2022-10-31T13:51:49;15.10;99.90
44817;DHT22;30529;53.570;9.964;2022-10-31T13:54:31;15.00;99.90
44817;DHT22;30529;53.570;9.964;2022-10-31T13:56:58;14.80;99.90
44817;DHT22;30529;53.570;9.964;2022-10-31T13:59:27;14.70;99.90
44817;DHT22;30529;53.570;9.964;2022-10-31T14:01:59;14.70;99.90
44817;DHT22;30529;53.570;9.964;2022-10-31T14:04:48;14.70;99.90
44817;DHT22;30529;53.570;9.964;2022-10-31T14:07:17;14.80;99.90
44817;DHT22;30529;53.570;9.964;2022-10-31T14:10:02;14.90;99.90
44817;DHT22;30529;53.570;9.964;2022-10-31T14:12:41;14.90;99.90
44817;DHT22;30529;53.570;9.964;2022-10-31T14:15:22;14.90;99.90
44817;DHT22;30529;53.570;9.964;2022-10-31T14:17:50;14.90;99.90
44817;DHT22;30529;53.570;9.964;2022-10-31T14:20:41;14.90;99.90
44817;DHT22;30529;53.570;9.964;2022-10-31T14:26:36;14.70;99.90
44817;DHT22;30529;53.570;9.964;2022-10-31T14:29:02;14.60;99.90
44817;DHT22;30529;53.570;9.964;2022-10-31T14:31:54;14.50;99.90
44817;DHT22;30529;53.570;9.964;2022-10-31T14:34:57;14.50;99.90
44817;DHT22;30529;53.570;9.964;2022-10-31T14:37:35;14.50;99.90
44817;DHT22;30529;53.570;9.964;2022-10-31T14:45:33;14.50;99.90
44817;DHT22;30529;53.570;9.964;2022-10-31T14:51:20;14.50;99.90
44817;DHT22;30529;53.570;9.964;2022-10-31T14:53:50;14.60;99.90
44817;DHT22;30529;53.570;9.964;2022-10-31T14:56:25;14.60;99.90
44817;DHT22;30529;53.570;9.964;2022-10-31T14:58:53;14.60;99.90
44817;DHT22;30529;53.570;9.964;2022-10-31T15:01:32;14.60;99.90
44817;DHT22;30529;53.570;9.964;2022-10-31T15:04:13;14.60;99.90
44817;DHT22;30529;53.570;9.964;2022-10-31T15:06:43;14.50;99.90
44817;DHT22;30529;53.570;9.964;2022-10-31T15:09:23;14.50;99.90
44817;DHT22;30529;53.570;9.964;2022-10-31T15:11:49;14.50;99.90
44817;DHT22;30529;53.570;9.964;2022-10-31T15:14:30;14.40;99.90
44817;DHT22;30529;53.570;9.964;2022-10-31T15:16:58;14.30;99.90
44817;DHT22;30529;53.570;9.964;2022-10-31T15:19:27;14.30;99.90
44817;DHT22;30529;53.570;9.964;2022-10-31T15:21:55;14.30;99.90
44817;DHT22;30529;53.570;9.964;2022-10-31T15:24:24;14.30;99.90
44817;DHT22;30529;53.570;9.964;2022-10-31T15:26:54;14.30;99.90
44817;DHT22;30529;53.570;9.964;2022-10-31T15:29:24;14.30;99.90
44817;DHT22;30529;53.570;9.964;2022-10-31T15:31:55;14.20;99.90
44817;DHT22;30529;53.570;9.964;2022-10-31T15:34:40;14.20;99.90
44817;DHT22;30529;53.570;9.964;2022-10-31T15:37:17;14.20;99.90
44817;DHT22;30529;53.570;9.964;2022-10-31T15:39:45;14.10;99.90
44817;DHT22;30529;53.570;9.964;2022-10-31T15:42:35;14.10;99.90
44817;DHT22;30529;53.570;9.964;2022-10-31T15:47:35;14.00;99.90
44817;DHT22;30529;53.570;9.964;2022-10-31T15:50:04;14.00;99.90
44817;DHT22;30529;53.570;9.964;2022-10-31T15:52:45;13.90;99.90
44817;DHT22;30529;53.570;9.964;2022-10-31T15:55:26;13.90;99.90
44817;DHT22;30529;53.570;9.964;2022-10-31T15:58:10;13.80;99.90
44817;DHT22;30529;53.570;9.964;2022-10-31T16:00:42;13.80;99.90
44817;DHT22;30529;53.570;9.964;2022-10-31T16:13:36;13.50;99.90
44817;DHT22;30529;53.570;9.964;2022-10-31T16:16:14;13.50;99.90
44817;DHT22;30529;53.570;9.964;2022-10-31T16:18:42;13.50;99.90
44817;DHT22;30529;53.570;9.964;2022-10-31T16:21:09;13.50;99.90
44817;DHT22;30529;53.570;9.964;2022-10-31T16:23:38;13.60;99.90
44817;DHT22;30529;53.570;9.964;2022-10-31T16:26:06;13.60;99.90
44817;DHT22;30529;53.570;9.964;2022-10-31T16:28:33;13.60;99.90
44817;DHT22;30529;53.570;9.964;2022-10-31T16:31:00;13.70;99.90
44817;DHT22;30529;53.570;9.964;2022-10-31T16:33:34;13.70;99.90
44817;DHT22;30529;53.570;9.964;2022-10-31T16:36:35;13.60;99.90
44817;DHT22;30529;53.570;9.964;2022-10-31T16:39:04;13.60;99.90
44817;DHT22;30529;53.570;9.964;2022-10-31T16:41:33;13.60;99.90
44817;DHT22;30529;53.570;9.964;2022-10-31T16:44:02;13.70;99.90
44817;DHT22;30529;53.570;9.964;2022-10-31T16:46:30;13.60;99.90
44817;DHT22;30529;53.570;9.964;2022-10-31T16:48:57;13.60;99.90
44817;DHT22;30529;53.570;9.964;2022-10-31T16:51:23;13.60;99.90
44817;DHT22;30529;53.570;9.964;2022-10-31T16:53:52;13.70;99.90
44817;DHT22;30529;53.570;9.964;2022-10-31T16:56:30;13.70;99.90
44817;DHT22;30529;53.570;9.964;2022-10-31T16:58:59;13.70;99.90
44817;DHT22;30529;53.570;9.964;2022-10-31T17:01:27;13.70;99.90
44817;DHT22;30529;53.570;9.964;2022-10-31T17:03:54;13.70;99.90
44817;DHT22;30529;53.570;9.964;2022-10-31T17:06:20;13.70;99.90
44817;DHT22;30529;53.570;9.964;2022-10-31T17:08:46;13.60;99.90
44817;DHT22;30529;53.570;9.964;2022-10-31T17:11:20;13.70;99.90
44817;DHT22;30529;53.570;9.964;2022-10-31T17:13:47;13.80;99.90
44817;DHT22;30529;53.570;9.964;2022-10-31T17:16:14;13.70;99.90
44817;DHT22;30529;53.570;9.964;2022-10-31T17:18:40;13.70;99.90
44817;DHT22;30529;53.570;9.964;2022-10-31T17:21:16;13.80;99.90
44817;DHT22;30529;53.570;9.964;2022-10-31T17:23:43;13.70;99.90
44817;DHT22;30529;53.570;9.964;2022-10-31T17:26:10;13.70;99.90
44817;DHT22;30529;53.570;9.964;2022-10-31T17:28:36;13.70;99.90
44817;DHT22;30529;53.570;9.964;2022-10-31T17:31:02;13.80;99.90
44817;DHT22;30529;53.570;9.964;2022-10-31T17:33:28;13.70;99.90
44817;DHT22;30529;53.570;9.964;2022-10-31T17:35:55;13.70;99.90
44817;DHT22;30529;53.570;9.964;2022-10-31T17:38:21;13.90;99.90
44817;DHT22;30529;53.570;9.964;2022-10-31T17:40:48;13.90;99.90
44817;DHT22;30529;53.570;9.964;2022-10-31T17:43:14;13.90;99.90
44817;DHT22;30529;53.570;9.964;2022-10-31T17:45:44;13.90;99.90
44817;DHT22;30529;53.570;9.964;2022-10-31T17:48:11;13.80;99.90
44817;DHT22;30529;53.570;9.964;2022-10-31T17:50:37;13.80;99.90
44817;DHT22;30529;53.570;9.964;2022-10-31T17:53:03;13.80;99.90
44817;DHT22;30529;53.570;9.964;2022-10-31T17:55:30;13.90;99.90
44817;DHT22;30529;53.570;9.964;2022-10-31T17:57:56;13.80;99.90
44817;DHT22;30529;53.570;9.964;2022-10-31T18:00:27;13.80;99.90
44817;DHT22;30529;53.570;9.964;2022-10-31T18:02:53;13.80;99.90
44817;DHT22;30529;53.570;9.964;2022-10-31T18:05:19;13.80;99.90
44817;DHT22;30529;53.570;9.964;2022-10-31T18:07:49;13.90;99.90
44817;DHT22;30529;53.570;9.964;2022-10-31T18:10:15;13.80;99.90
44817;DHT22;30529;53.570;9.964;2022-10-31T18:12:42;13.70;99.90
44817;DHT22;30529;53.570;9.964;2022-10-31T18:15:09;13.80;99.90
44817;DHT22;30529;53.570;9.964;2022-10-31T18:17:35;13.80;99.90
44817;DHT22;30529;53.570;9.964;2022-10-31T18:20:01;13.70;99.90
44817;DHT22;30529;53.570;9.964;2022-10-31T18:22:28;13.60;99.90
44817;DHT22;30529;53.570;9.964;2022-10-31T18:24:54;13.70;99.90
44817;DHT22;30529;53.570;9.964;2022-10-31T18:27:20;13.70;99.90